sensor_id;sensor_type;location;lat;lon;timestamp;pressure;altitude;pressure_sealevel;temperature;humidity
14067;BME280;7108;42.684;23.350;2023-05-12T00:00:23;95582.84;;;11.05;100.00
14067;BME280;7108;42.684;23.350;2023-05-12T00:02:48;95593.25;;;11.07;100.00
14067;BME280;7108;42.684;23.350;2023-05-12T00:05:14;95597.88;;;11.06;100.00
14067;BME280;7108;42.684;23.350;2023-05-12T00:07:39;95597.34;;;11.01;100.00
14067;BME280;7108;42.684;23.350;2023-05-12T00:10:05;95596.22;;;11.02;100.00
14067;BME280;7108;42.684;23.350;2023-05-12T00:12:31;95586.16;;;10.99;100.00
14067;BME280;7108;42.684;23.350;2023-05-12T00:14:56;95584.31;;;11.03;100.00
14067;BME280;7108;42.684;23.350;2023-05-12T00:17:22;95593.25;;;11.07;100.00
14067;BME280;7108;42.684;23.350;2023-05-12T00:19:47;95581.03;;;10.94;100.00
14067;BME280;7108;42.684;23.350;2023-05-12T00:22:13;95584.41;;;10.91;100.00
14067;BME280;7108;42.684;23.350;2023-05-12T00:24:39;95581.63;;;10.87;100.00
14067;BME280;7108;42.684;23.350;2023-05-12T00:27:05;95585.41;;;10.83;100.00
14067;BME280;7108;42.684;23.350;2023-05-12T00:29:31;95593.34;;;10.95;100.00
14067;BME280;7108;42.684;23.350;2023-05-12T00:31:57;95584.25;;;10.84;100.00
14067;BME280;7108;42.684;23.350;2023-05-12T00:34:22;95599.81;;;10.90;100.00
14067;BME280;7108;42.684;23.350;2023-05-12T00:36:48;95592.94;;;10.77;100.00
14067;BME280;7108;42.684;23.350;2023-05-12T00:39:13;95581.66;;;10.72;100.00
14067;BME280;7108;42.684;23.350;2023-05-12T00:41:39;95588.88;;;10.68;100.00
14067;BME280;7108;42.684;23.350;2023-05-12T00:44:04;95589.75;;;10.56;100.00
14067;BME280;7108;42.684;23.350;2023-05-12T00:46:30;95603.91;;;10.69;100.00
14067;BME280;7108;42.684;23.350;2023-05-12T00:48:56;95598.09;;;10.67;100.00
14067;BME280;7108;42.684;23.350;2023-05-12T00:51:22;95594.69;;;10.70;100.00
14067;BME280;7108;42.684;23.350;2023-05-12T00:53:48;95613.56;;;10.70;100.00
14067;BME280;7108;42.684;23.350;2023-05-12T00:56:13;95607.53;;;10.76;100.00
14067;BME280;7108;42.684;23.350;2023-05-12T00:58:41;95602.88;;;10.73;100.00
14067;BME280;7108;42.684;23.350;2023-05-12T01:01:06;95602.09;;;10.73;100.00
14067;BME280;7108;42.684;23.350;2023-05-12T01:03:32;95609.47;;;10.76;100.00
14067;BME280;7108;42.684;23.350;2023-05-12T01:06:05;95614.41;;;10.74;100.00
14067;BME280;7108;42.684;23.350;2023-05-12T01:08:34;95615.13;;;10.71;100.00
14067;BME280;7108;42.684;23.350;2023-05-12T01:11:00;95613.41;;;10.63;100.00
14067;BME280;7108;42.684;23.350;2023-05-12T01:13:26;95608.34;;;10.61;100.00
14067;BME280;7108;42.684;23.350;2023-05-12T01:15:52;95608.25;;;10.58;100.00
14067;BME280;7108;42.684;23.350;2023-05-12T01:18:21;95610.69;;;10.47;100.00
14067;BME280;7108;42.684;23.350;2023-05-12T01:20:47;95625.28;;;10.46;100.00
14067;BME280;7108;42.684;23.350;2023-05-12T01:23:15;95633.13;;;10.51;100.00
14067;BME280;7108;42.684;23.350;2023-05-12T01:25:43;95629.72;;;10.39;100.00
14067;BME280;7108;42.684;23.350;2023-05-12T01:28:10;95622.66;;;10.35;100.00
14067;BME280;7108;42.684;23.350;2023-05-12T01:30:38;95631.97;;;10.37;100.00
14067;BME280;7108;42.684;23.350;2023-05-12T01:33:08;95628.22;;;10.26;100.00
14067;BME280;7108;42.684;23.350;2023-05-12T01:35:33;95622.41;;;10.24;100.00
14067;BME280;7108;42.684;23.350;2023-05-12T01:37:59;95622.84;;;10.26;100.00
14067;BME280;7108;42.684;23.350;2023-05-12T01:40:24;95624.47;;;10.31;100.00
14067;BME280;7108;42.684;23.350;2023-05-12T01:42:50;95624.38;;;10.27;100.00
14067;BME280;7108;42.684;23.350;2023-05-12T01:45:16;95620.72;;;10.20;100.00
14067;BME280;7108;42.684;23.350;2023-05-12T01:47:41;95644.53;;;10.18;100.00
14067;BME280;7108;42.684;23.350;2023-05-12T01:50:07;95629.75;;;10.12;100.00
14067;BME280;7108;42.684;23.350;2023-05-12T01:52:33;95620.13;;;10.11;100.00
14067;BME280;7108;42.684;23.350;2023-05-12T01:54:58;95639.66;;;10.08;100.00
14067;BME280;7108;42.684;23.350;2023-05-12T01:57:24;95631.28;;;9.97;100.00
14067;BME280;7108;42.684;23.350;2023-05-12T01:59:49;95630.25;;;10.02;100.00
14067;BME280;7108;42.684;23.350;2023-05-12T02:02:14;95632.72;;;9.95;100.00
14067;BME280;7108;42.684;23.350;2023-05-12T02:04:40;95620.72;;;9.92;100.00
14067;BME280;7108;42.684;23.350;2023-05-12T02:07:05;95639.81;;;9.87;100.00
14067;BME280;7108;42.684;23.350;2023-05-12T02:09:31;95639.47;;;9.89;100.00
14067;BME280;7108;42.684;23.350;2023-05-12T02:11:56;95631.13;;;9.78;100.00
14067;BME280;7108;42.684;23.350;2023-05-12T02:14:22;95632.03;;;9.71;100.00
14067;BME280;7108;42.684;23.350;2023-05-12T02:16:47;95631.59;;;9.69;100.00
14067;BME280;7108;42.684;23.350;2023-05-12T02:19:19;95647.59;;;9.77;100.00
14067;BME280;7108;42.684;23.350;2023-05-12T02:21:46;95641.56;;;9.68;100.00
14067;BME280;7108;42.684;23.350;2023-05-12T02:24:11;95636.88;;;9.65;100.00
14067;BME280;7108;42.684;23.350;2023-05-12T02:26:37;95642.63;;;9.52;100.00
14067;BME280;7108;42.684;23.350;2023-05-12T02:29:02;95640.53;;;9.45;100.00
14067;BME280;7108;42.684;23.350;2023-05-12T02:31:27;95638.06;;;9.40;100.00
14067;BME280;7108;42.684;23.350;2023-05-12T02:33:53;95626.09;;;9.26;100.00
14067;BME280;7108;42.684;23.350;2023-05-12T02:36:18;95643.69;;;9.35;100.00
14067;BME280;7108;42.684;23.350;2023-05-12T02:38:44;95643.00;;;9.26;100.00
14067;BME280;7108;42.684;23.350;2023-05-12T02:41:09;95637.88;;;9.21;100.00
14067;BME280;7108;42.684;23.350;2023-05-12T02:43:35;95640.44;;;9.18;100.00
14067;BME280;7108;42.684;23.350;2023-05-12T02:46:00;95642.06;;;9.07;100.00
14067;BME280;7108;42.684;23.350;2023-05-12T02:48:25;95639.13;;;9.12;100.00
14067;BME280;7108;42.684;23.350;2023-05-12T02:50:51;95638.22;;;9.08;100.00
14067;BME280;7108;42.684;23.350;2023-05-12T02:53:16;95638.13;;;9.05;100.00
14067;BME280;7108;42.684;23.350;2023-05-12T02:55:42;95636.22;;;9.05;100.00
14067;BME280;7108;42.684;23.350;2023-05-12T02:58:07;95630.28;;;9.00;100.00
14067;BME280;7108;42.684;23.350;2023-05-12T03:00:33;95625.47;;;8.93;100.00
14067;BME280;7108;42.684;23.350;2023-05-12T03:02:58;95642.03;;;8.95;100.00
14067;BME280;7108;42.684;23.350;2023-05-12T03:05:23;95644.06;;;8.98;100.00
14067;BME280;7108;42.684;23.350;2023-05-12T03:07:49;95625.69;;;8.88;100.00
14067;BME280;7108;42.684;23.350;2023-05-12T03:10:16;95649.00;;;8.96;100.00
14067;BME280;7108;42.684;23.350;2023-05-12T03:12:41;95633.09;;;8.91;100.00
14067;BME280;7108;42.684;23.350;2023-05-12T03:15:07;95642.28;;;8.90;100.00
14067;BME280;7108;42.684;23.350;2023-05-12T03:17:33;95639.94;;;8.89;100.00
14067;BME280;7108;42.684;23.350;2023-05-12T03:19:59;95646.84;;;8.90;100.00
14067;BME280;7108;42.684;23.350;2023-05-12T03:22:24;95648.66;;;8.98;100.00
14067;BME280;7108;42.684;23.350;2023-05-12T03:24:50;95645.84;;;8.94;100.00
14067;BME280;7108;42.684;23.350;2023-05-12T03:27:15;95636.91;;;8.78;100.00
14067;BME280;7108;42.684;23.350;2023-05-12T03:29:41;95653.78;;;8.91;100.00
14067;BME280;7108;42.684;23.350;2023-05-12T03:32:06;95649.09;;;8.76;100.00
14067;BME280;7108;42.684;23.350;2023-05-12T03:34:33;95662.31;;;8.81;100.00
14067;BME280;7108;42.684;23.350;2023-05-12T03:36:58;95659.97;;;8.79;100.00
14067;BME280;7108;42.684;23.350;2023-05-12T03:39:24;95652.78;;;8.71;100.00
14067;BME280;7108;42.684;23.350;2023-05-12T03:41:49;95661.53;;;8.80;100.00
14067;BME280;7108;42.684;23.350;2023-05-12T03:44:15;95671.81;;;8.78;100.00
14067;BME280;7108;42.684;23.350;2023-05-12T03:46:40;95656.38;;;8.75;100.00
14067;BME280;7108;42.684;23.350;2023-05-12T03:49:06;95659.28;;;8.82;100.00
14067;BME280;7108;42.684;23.350;2023-05-12T03:51:31;95656.03;;;8.77;100.00
14067;BME280;7108;42.684;23.350;2023-05-12T03:53:57;95661.66;;;8.84;100.00
14067;BME280;7108;42.684;23.350;2023-05-12T03:56:22;95654.13;;;8.89;100.00
14067;BME280;7108;42.684;23.350;2023-05-12T03:58:48;95666.00;;;8.88;100.00
14067;BME280;7108;42.684;23.350;2023-05-12T04:01:14;95663.78;;;8.90;100.00
14067;BME280;7108;42.684;23.350;2023-05-12T04:03:39;95665.88;;;8.85;100.00
14067;BME280;7108;42.684;23.350;2023-05-12T04:06:05;95665.56;;;8.74;100.00
14067;BME280;7108;42.684;23.350;2023-05-12T04:08:31;95658.59;;;8.73;100.00
14067;BME280;7108;42.684;23.350;2023-05-12T04:10:58;95674.97;;;8.80;100.00
14067;BME280;7108;42.684;23.350;2023-05-12T04:13:24;95671.16;;;8.81;100.00
14067;BME280;7108;42.684;23.350;2023-05-12T04:15:50;95684.16;;;8.91;100.00
14067;BME280;7108;42.684;23.350;2023-05-12T04:18:16;95682.59;;;8.90;100.00
14067;BME280;7108;42.684;23.350;2023-05-12T04:20:42;95677.31;;;8.94;100.00
14067;BME280;7108;42.684;23.350;2023-05-12T04:23:07;95683.47;;;8.94;100.00
14067;BME280;7108;42.684;23.350;2023-05-12T04:25:37;95671.59;;;8.95;100.00
14067;BME280;7108;42.684;23.350;2023-05-12T04:28:03;95678.22;;;8.98;100.00
14067;BME280;7108;42.684;23.350;2023-05-12T04:30:28;95679.44;;;9.00;100.00
14067;BME280;7108;42.684;23.350;2023-05-12T04:32:54;95674.97;;;9.04;100.00
14067;BME280;7108;42.684;23.350;2023-05-12T04:35:19;95684.38;;;9.10;100.00
14067;BME280;7108;42.684;23.350;2023-05-12T04:37:45;95665.66;;;9.02;100.00
14067;BME280;7108;42.684;23.350;2023-05-12T04:40:10;95675.84;;;9.08;100.00
14067;BME280;7108;42.684;23.350;2023-05-12T04:42:36;95670.56;;;9.00;100.00
14067;BME280;7108;42.684;23.350;2023-05-12T04:45:01;95679.00;;;9.10;100.00
14067;BME280;7108;42.684;23.350;2023-05-12T04:47:27;95675.63;;;9.13;100.00
14067;BME280;7108;42.684;23.350;2023-05-12T04:49:53;95673.03;;;9.16;100.00
14067;BME280;7108;42.684;23.350;2023-05-12T04:52:18;95677.66;;;9.16;100.00
14067;BME280;7108;42.684;23.350;2023-05-12T04:54:45;95666.78;;;9.13;100.00
14067;BME280;7108;42.684;23.350;2023-05-12T04:57:10;95671.69;;;9.22;100.00
14067;BME280;7108;42.684;23.350;2023-05-12T04:59:36;95687.50;;;9.24;100.00
14067;BME280;7108;42.684;23.350;2023-05-12T05:02:01;95688.28;;;9.24;100.00
14067;BME280;7108;42.684;23.350;2023-05-12T05:04:27;95673.38;;;9.15;100.00
14067;BME280;7108;42.684;23.350;2023-05-12T05:06:52;95682.22;;;9.27;100.00
14067;BME280;7108;42.684;23.350;2023-05-12T05:09:22;95684.78;;;9.36;100.00
14067;BME280;7108;42.684;23.350;2023-05-12T05:11:47;95674.28;;;9.31;100.00
14067;BME280;7108;42.684;23.350;2023-05-12T05:14:12;95684.44;;;9.37;100.00
14067;BME280;7108;42.684;23.350;2023-05-12T05:16:38;95680.19;;;9.36;100.00
14067;BME280;7108;42.684;23.350;2023-05-12T05:19:03;95675.38;;;9.30;100.00
14067;BME280;7108;42.684;23.350;2023-05-12T05:21:29;95679.31;;;9.32;100.00
14067;BME280;7108;42.684;23.350;2023-05-12T05:23:54;95689.41;;;9.35;100.00
14067;BME280;7108;42.684;23.350;2023-05-12T05:26:19;95682.78;;;9.33;100.00
14067;BME280;7108;42.684;23.350;2023-05-12T05:28:46;95684.78;;;9.36;100.00
14067;BME280;7108;42.684;23.350;2023-05-12T05:31:15;95672.03;;;9.21;100.00
14067;BME280;7108;42.684;23.350;2023-05-12T05:33:42;95687.16;;;9.25;100.00
14067;BME280;7108;42.684;23.350;2023-05-12T05:36:07;95672.63;;;9.14;100.00
14067;BME280;7108;42.684;23.350;2023-05-12T05:38:32;95676.19;;;9.18;100.00
14067;BME280;7108;42.684;23.350;2023-05-12T05:40:58;95687.94;;;9.26;100.00
14067;BME280;7108;42.684;23.350;2023-05-12T05:43:23;95689.19;;;9.28;100.00
14067;BME280;7108;42.684;23.350;2023-05-12T05:45:49;95696.25;;;9.33;100.00
14067;BME280;7108;42.684;23.350;2023-05-12T05:48:16;95691.41;;;9.26;100.00
14067;BME280;7108;42.684;23.350;2023-05-12T05:50:41;95695.00;;;9.30;100.00
14067;BME280;7108;42.684;23.350;2023-05-12T05:53:07;95684.78;;;9.24;100.00
14067;BME280;7108;42.684;23.350;2023-05-12T05:55:38;95693.31;;;9.26;100.00
14067;BME280;7108;42.684;23.350;2023-05-12T05:58:03;95697.47;;;9.35;100.00
14067;BME280;7108;42.684;23.350;2023-05-12T06:00:29;95703.97;;;9.34;100.00
14067;BME280;7108;42.684;23.350;2023-05-12T06:02:55;95695.31;;;9.29;100.00
14067;BME280;7108;42.684;23.350;2023-05-12T06:05:20;95710.13;;;9.35;100.00
14067;BME280;7108;42.684;23.350;2023-05-12T06:07:46;95684.69;;;9.32;100.00
14067;BME280;7108;42.684;23.350;2023-05-12T06:10:11;95701.47;;;9.41;100.00
14067;BME280;7108;42.684;23.350;2023-05-12T06:12:37;95706.53;;;9.43;100.00
14067;BME280;7108;42.684;23.350;2023-05-12T06:15:05;95704.28;;;9.45;100.00
14067;BME280;7108;42.684;23.350;2023-05-12T06:17:30;95706.41;;;9.51;100.00
14067;BME280;7108;42.684;23.350;2023-05-12T06:19:56;95706.84;;;9.41;100.00
14067;BME280;7108;42.684;23.350;2023-05-12T06:22:21;95705.63;;;9.51;100.00
14067;BME280;7108;42.684;23.350;2023-05-12T06:24:47;95708.06;;;9.56;100.00
14067;BME280;7108;42.684;23.350;2023-05-12T06:27:12;95694.75;;;9.47;100.00
14067;BME280;7108;42.684;23.350;2023-05-12T06:29:38;95717.03;;;9.60;100.00
14067;BME280;7108;42.684;23.350;2023-05-12T06:32:03;95710.41;;;9.57;100.00
14067;BME280;7108;42.684;23.350;2023-05-12T06:34:29;95716.47;;;9.54;100.00
14067;BME280;7108;42.684;23.350;2023-05-12T06:36:54;95706.63;;;9.46;100.00
14067;BME280;7108;42.684;23.350;2023-05-12T06:39:20;95711.56;;;9.56;100.00
14067;BME280;7108;42.684;23.350;2023-05-12T06:41:45;95707.72;;;9.57;100.00
14067;BME280;7108;42.684;23.350;2023-05-12T06:44:10;95714.25;;;9.56;100.00
14067;BME280;7108;42.684;23.350;2023-05-12T06:46:39;95718.81;;;9.56;100.00
14067;BME280;7108;42.684;23.350;2023-05-12T06:49:05;95721.63;;;9.59;100.00
14067;BME280;7108;42.684;23.350;2023-05-12T06:51:31;95716.13;;;9.68;100.00
14067;BME280;7108;42.684;23.350;2023-05-12T06:53:56;95717.47;;;9.62;100.00
14067;BME280;7108;42.684;23.350;2023-05-12T06:56:22;95729.94;;;9.66;100.00
14067;BME280;7108;42.684;23.350;2023-05-12T06:58:48;95719.25;;;9.70;100.00
14067;BME280;7108;42.684;23.350;2023-05-12T07:01:14;95714.31;;;9.72;100.00
14067;BME280;7108;42.684;23.350;2023-05-12T07:03:39;95713.09;;;9.69;100.00
14067;BME280;7108;42.684;23.350;2023-05-12T07:06:05;95720.16;;;9.74;100.00
14067;BME280;7108;42.684;23.350;2023-05-12T07:08:30;95712.84;;;9.74;100.00
14067;BME280;7108;42.684;23.350;2023-05-12T07:10:58;95720.81;;;9.82;100.00
14067;BME280;7108;42.684;23.350;2023-05-12T07:13:24;95712.97;;;9.77;100.00
14067;BME280;7108;42.684;23.350;2023-05-12T07:15:49;95726.06;;;9.91;100.00
14067;BME280;7108;42.684;23.350;2023-05-12T07:18:15;95729.31;;;9.96;100.00
14067;BME280;7108;42.684;23.350;2023-05-12T07:20:40;95719.88;;;9.90;100.00
14067;BME280;7108;42.684;23.350;2023-05-12T07:23:06;95719.09;;;9.90;100.00
14067;BME280;7108;42.684;23.350;2023-05-12T07:25:31;95721.22;;;9.96;100.00
14067;BME280;7108;42.684;23.350;2023-05-12T07:27:56;95723.72;;;9.89;100.00
14067;BME280;7108;42.684;23.350;2023-05-12T07:30:22;95728.41;;;9.92;100.00
14067;BME280;7108;42.684;23.350;2023-05-12T07:32:47;95716.28;;;9.86;100.00
14067;BME280;7108;42.684;23.350;2023-05-12T07:35:13;95726.47;;;9.93;100.00
14067;BME280;7108;42.684;23.350;2023-05-12T07:37:38;95709.66;;;9.96;100.00
14067;BME280;7108;42.684;23.350;2023-05-12T07:40:06;95715.84;;;9.96;100.00
14067;BME280;7108;42.684;23.350;2023-05-12T07:42:31;95724.72;;;9.97;100.00
14067;BME280;7108;42.684;23.350;2023-05-12T07:44:57;95727.59;;;10.04;100.00
14067;BME280;7108;42.684;23.350;2023-05-12T07:47:22;95726.47;;;10.05;100.00
14067;BME280;7108;42.684;23.350;2023-05-12T07:49:48;95721.66;;;10.10;100.00
14067;BME280;7108;42.684;23.350;2023-05-12T07:52:13;95715.81;;;10.08;100.00
14067;BME280;7108;42.684;23.350;2023-05-12T07:54:39;95720.19;;;10.13;100.00
14067;BME280;7108;42.684;23.350;2023-05-12T07:57:04;95711.88;;;10.18;100.00
14067;BME280;7108;42.684;23.350;2023-05-12T07:59:29;95714.19;;;10.19;100.00
14067;BME280;7108;42.684;23.350;2023-05-12T08:01:55;95704.66;;;10.22;100.00
14067;BME280;7108;42.684;23.350;2023-05-12T08:04:20;95706.97;;;10.35;100.00
14067;BME280;7108;42.684;23.350;2023-05-12T08:06:46;95715.06;;;10.50;100.00
14067;BME280;7108;42.684;23.350;2023-05-12T08:09:11;95714.91;;;10.59;100.00
14067;BME280;7108;42.684;23.350;2023-05-12T08:11:37;95715.69;;;10.59;100.00
14067;BME280;7108;42.684;23.350;2023-05-12T08:14:02;95700.91;;;10.53;100.00
14067;BME280;7108;42.684;23.350;2023-05-12T08:16:28;95704.22;;;10.62;100.00
14067;BME280;7108;42.684;23.350;2023-05-12T08:18:53;95705.78;;;10.63;100.00
14067;BME280;7108;42.684;23.350;2023-05-12T08:21:19;95706.25;;;10.65;100.00
14067;BME280;7108;42.684;23.350;2023-05-12T08:23:44;95708.22;;;10.68;100.00
14067;BME280;7108;42.684;23.350;2023-05-12T08:26:10;95705.53;;;10.68;100.00
14067;BME280;7108;42.684;23.350;2023-05-12T08:28:35;95705.38;;;10.77;100.00
14067;BME280;7108;42.684;23.350;2023-05-12T08:31:01;95708.31;;;10.87;100.00
14067;BME280;7108;42.684;23.350;2023-05-12T08:33:27;95709.03;;;10.84;100.00
14067;BME280;7108;42.684;23.350;2023-05-12T08:35:52;95720.78;;;10.92;100.00
14067;BME280;7108;42.684;23.350;2023-05-12T08:38:18;95711.13;;;10.91;100.00
14067;BME280;7108;42.684;23.350;2023-05-12T08:41:00;95714.00;;;10.98;100.00
14067;BME280;7108;42.684;23.350;2023-05-12T08:43:43;95708.44;;;11.06;100.00
14067;BME280;7108;42.684;23.350;2023-05-12T08:46:08;95704.84;;;11.02;100.00
14067;BME280;7108;42.684;23.350;2023-05-12T08:48:37;95706.78;;;11.17;100.00
14067;BME280;7108;42.684;23.350;2023-05-12T08:51:05;95690.66;;;11.20;100.00
14067;BME280;7108;42.684;23.350;2023-05-12T08:53:35;95696.69;;;11.29;100.00
14067;BME280;7108;42.684;23.350;2023-05-12T08:56:04;95698.75;;;11.36;100.00
14067;BME280;7108;42.684;23.350;2023-05-12T08:58:31;95702.84;;;11.45;100.00
14067;BME280;7108;42.684;23.350;2023-05-12T09:00:59;95705.44;;;11.42;100.00
14067;BME280;7108;42.684;23.350;2023-05-12T09:03:26;95688.59;;;11.29;100.00
14067;BME280;7108;42.684;23.350;2023-05-12T09:05:54;95688.91;;;11.28;100.00
14067;BME280;7108;42.684;23.350;2023-05-12T09:08:22;95696.91;;;11.40;100.00
14067;BME280;7108;42.684;23.350;2023-05-12T09:10:48;95684.50;;;11.35;100.00
14067;BME280;7108;42.684;23.350;2023-05-12T09:13:36;95687.31;;;11.42;100.00
14067;BME280;7108;42.684;23.350;2023-05-12T09:16:06;95680.72;;;11.40;100.00
14067;BME280;7108;42.684;23.350;2023-05-12T09:18:52;95681.00;;;11.35;100.00
14067;BME280;7108;42.684;23.350;2023-05-12T09:21:18;95686.19;;;11.43;100.00
14067;BME280;7108;42.684;23.350;2023-05-12T09:26:16;95674.13;;;11.53;100.00
14067;BME280;7108;42.684;23.350;2023-05-12T09:28:42;95672.06;;;11.65;100.00
14067;BME280;7108;42.684;23.350;2023-05-12T09:31:15;95673.09;;;11.76;100.00
14067;BME280;7108;42.684;23.350;2023-05-12T09:33:41;95673.50;;;11.78;100.00
14067;BME280;7108;42.684;23.350;2023-05-12T09:36:06;95668.25;;;11.85;100.00
14067;BME280;7108;42.684;23.350;2023-05-12T09:38:32;95658.94;;;11.82;100.00
14067;BME280;7108;42.684;23.350;2023-05-12T09:40:58;95661.44;;;11.91;100.00
14067;BME280;7108;42.684;23.350;2023-05-12T09:43:23;95655.13;;;11.83;100.00
14067;BME280;7108;42.684;23.350;2023-05-12T09:45:48;95659.59;;;11.95;100.00
14067;BME280;7108;42.684;23.350;2023-05-12T09:48:15;95658.09;;;11.97;100.00
14067;BME280;7108;42.684;23.350;2023-05-12T09:50:48;95674.94;;;12.10;100.00
14067;BME280;7108;42.684;23.350;2023-05-12T09:53:15;95675.78;;;12.14;100.00
14067;BME280;7108;42.684;23.350;2023-05-12T09:55:47;95674.00;;;12.21;100.00
14067;BME280;7108;42.684;23.350;2023-05-12T09:58:17;95671.09;;;12.30;100.00
14067;BME280;7108;42.684;23.350;2023-05-12T10:00:43;95659.94;;;12.31;100.00
14067;BME280;7108;42.684;23.350;2023-05-12T10:03:12;95653.97;;;12.22;100.00
14067;BME280;7108;42.684;23.350;2023-05-12T10:05:51;95655.31;;;12.32;100.00
14067;BME280;7108;42.684;23.350;2023-05-12T10:08:25;95658.94;;;12.39;100.00
14067;BME280;7108;42.684;23.350;2023-05-12T10:10:52;95655.63;;;12.49;100.00
14067;BME280;7108;42.684;23.350;2023-05-12T10:13:21;95651.66;;;12.43;100.00
14067;BME280;7108;42.684;23.350;2023-05-12T10:15:47;95659.53;;;12.51;100.00
14067;BME280;7108;42.684;23.350;2023-05-12T10:18:14;95662.31;;;12.55;100.00
14067;BME280;7108;42.684;23.350;2023-05-12T10:20:43;95648.66;;;12.48;100.00
14067;BME280;7108;42.684;23.350;2023-05-12T10:23:10;95652.72;;;12.57;100.00
14067;BME280;7108;42.684;23.350;2023-05-12T10:25:40;95655.47;;;12.61;100.00
14067;BME280;7108;42.684;23.350;2023-05-12T10:28:05;95646.69;;;12.67;100.00
14067;BME280;7108;42.684;23.350;2023-05-12T10:30:32;95648.34;;;12.72;100.00
14067;BME280;7108;42.684;23.350;2023-05-12T10:32:58;95644.22;;;12.81;100.00
14067;BME280;7108;42.684;23.350;2023-05-12T10:35:32;95641.75;;;12.92;100.00
14067;BME280;7108;42.684;23.350;2023-05-12T10:38:16;95631.06;;;12.99;100.00
14067;BME280;7108;42.684;23.350;2023-05-12T10:41:04;95630.19;;;13.17;100.00
14067;BME280;7108;42.684;23.350;2023-05-12T10:43:41;95625.19;;;13.19;100.00
14067;BME280;7108;42.684;23.350;2023-05-12T10:46:13;95622.72;;;13.36;100.00
14067;BME280;7108;42.684;23.350;2023-05-12T10:49:09;95623.09;;;13.35;100.00
14067;BME280;7108;42.684;23.350;2023-05-12T10:54:10;95626.88;;;13.56;100.00
14067;BME280;7108;42.684;23.350;2023-05-12T10:59:19;95625.09;;;13.67;100.00
14067;BME280;7108;42.684;23.350;2023-05-12T11:02:10;95632.88;;;13.72;100.00
14067;BME280;7108;42.684;23.350;2023-05-12T11:04:55;95629.75;;;13.67;100.00
14067;BME280;7108;42.684;23.350;2023-05-12T11:07:22;95638.28;;;13.69;100.00
14067;BME280;7108;42.684;23.350;2023-05-12T11:09:50;95628.66;;;13.74;100.00
14067;BME280;7108;42.684;23.350;2023-05-12T11:12:16;95624.78;;;13.72;100.00
14067;BME280;7108;42.684;23.350;2023-05-12T11:14:43;95633.03;;;13.82;100.00
14067;BME280;7108;42.684;23.350;2023-05-12T11:17:09;95628.91;;;13.92;100.00
14067;BME280;7108;42.684;23.350;2023-05-12T11:19:35;95626.97;;;13.92;100.00
14067;BME280;7108;42.684;23.350;2023-05-12T11:24:32;95631.75;;;14.02;100.00
14067;BME280;7108;42.684;23.350;2023-05-12T11:26:57;95640.94;;;13.94;100.00
14067;BME280;7108;42.684;23.350;2023-05-12T11:29:23;95646.31;;;13.91;100.00
14067;BME280;7108;42.684;23.350;2023-05-12T11:31:52;95630.47;;;13.93;100.00
14067;BME280;7108;42.684;23.350;2023-05-12T11:34:22;95651.34;;;13.92;100.00
14067;BME280;7108;42.684;23.350;2023-05-12T11:36:50;95633.97;;;13.93;100.00
14067;BME280;7108;42.684;23.350;2023-05-12T11:39:18;95649.09;;;13.98;100.00
14067;BME280;7108;42.684;23.350;2023-05-12T11:41:45;95641.34;;;13.96;100.00
14067;BME280;7108;42.684;23.350;2023-05-12T11:44:22;95635.53;;;13.98;100.00
14067;BME280;7108;42.684;23.350;2023-05-12T11:47:00;95639.06;;;13.98;100.00
14067;BME280;7108;42.684;23.350;2023-05-12T11:49:28;95640.97;;;13.98;100.00
14067;BME280;7108;42.684;23.350;2023-05-12T11:51:59;95636.19;;;13.88;100.00
14067;BME280;7108;42.684;23.350;2023-05-12T11:54:27;95639.75;;;13.92;100.00
14067;BME280;7108;42.684;23.350;2023-05-12T11:56:55;95636.63;;;13.90;100.00
14067;BME280;7108;42.684;23.350;2023-05-12T11:59:25;95630.72;;;13.81;100.00
14067;BME280;7108;42.684;23.350;2023-05-12T12:01:52;95642.81;;;13.90;100.00
14067;BME280;7108;42.684;23.350;2023-05-12T12:04:17;95627.25;;;13.84;100.00
14067;BME280;7108;42.684;23.350;2023-05-12T12:06:43;95630.34;;;13.82;100.00
14067;BME280;7108;42.684;23.350;2023-05-12T12:09:09;95636.56;;;13.86;100.00
14067;BME280;7108;42.684;23.350;2023-05-12T12:11:35;95642.00;;;13.86;100.00
14067;BME280;7108;42.684;23.350;2023-05-12T12:14:00;95633.69;;;13.73;100.00
14067;BME280;7108;42.684;23.350;2023-05-12T12:16:27;95638.47;;;13.82;100.00
14067;BME280;7108;42.684;23.350;2023-05-12T12:18:53;95646.91;;;13.77;100.00
14067;BME280;7108;42.684;23.350;2023-05-12T12:21:20;95649.34;;;13.86;100.00
14067;BME280;7108;42.684;23.350;2023-05-12T12:23:48;95647.34;;;13.83;100.00
14067;BME280;7108;42.684;23.350;2023-05-12T12:26:14;95643.41;;;13.77;100.00
14067;BME280;7108;42.684;23.350;2023-05-12T12:28:48;95643.09;;;13.82;100.00
14067;BME280;7108;42.684;23.350;2023-05-12T12:31:14;95642.75;;;13.83;100.00
14067;BME280;7108;42.684;23.350;2023-05-12T12:33:40;95632.22;;;13.78;100.00
14067;BME280;7108;42.684;23.350;2023-05-12T12:36:06;95651.25;;;13.85;100.00
14067;BME280;7108;42.684;23.350;2023-05-12T12:38:32;95644.69;;;13.86;100.00
14067;BME280;7108;42.684;23.350;2023-05-12T12:40:57;95640.47;;;13.89;100.00
14067;BME280;7108;42.684;23.350;2023-05-12T12:43:23;95633.00;;;13.79;100.00
14067;BME280;7108;42.684;23.350;2023-05-12T12:45:48;95639.66;;;13.85;100.00
14067;BME280;7108;42.684;23.350;2023-05-12T12:48:14;95644.31;;;13.88;100.00
14067;BME280;7108;42.684;23.350;2023-05-12T12:50:40;95645.91;;;13.89;100.00
14067;BME280;7108;42.684;23.350;2023-05-12T12:53:05;95641.28;;;13.89;100.00
14067;BME280;7108;42.684;23.350;2023-05-12T12:55:31;95651.31;;;13.89;100.00
14067;BME280;7108;42.684;23.350;2023-05-12T12:57:57;95636.56;;;13.86;100.00
14067;BME280;7108;42.684;23.350;2023-05-12T13:00:23;95629.25;;;13.90;100.00
14067;BME280;7108;42.684;23.350;2023-05-12T13:02:49;95632.78;;;13.91;100.00